createdAt,value
2018-07-28T00:02:21.349Z,46.90
2018-07-28T00:07:17.384Z,46.90
2018-07-28T00:09:45.480Z,46.90
2018-07-28T00:12:13.615Z,47.00
2018-07-28T00:14:41.803Z,47.00
2018-07-28T00:17:09.880Z,47.00
2018-07-28T00:19:38.073Z,46.90
2018-07-28T00:22:06.191Z,47.00
2018-07-28T00:24:34.313Z,47.00
2018-07-28T00:27:02.468Z,47.00
2018-07-28T00:29:31.252Z,47.20
2018-07-28T00:31:59.350Z,47.00
2018-07-28T00:34:27.420Z,47.00
2018-07-28T00:36:55.490Z,47.10
2018-07-28T00:39:23.548Z,47.10
2018-07-28T00:41:51.758Z,47.10
2018-07-28T00:44:19.875Z,47.20
2018-07-28T00:46:47.977Z,47.10
2018-07-28T00:49:16.056Z,47.10
2018-07-28T00:51:44.197Z,47.30
2018-07-28T00:54:12.399Z,47.20
2018-07-28T00:56:40.503Z,47.20
2018-07-28T00:59:08.609Z,47.70
2018-07-28T01:01:36.793Z,47.30
2018-07-28T01:04:04.914Z,47.30
2018-07-28T01:06:33.041Z,47.20
2018-07-28T01:09:01.183Z,47.30
2018-07-28T01:11:29.266Z,47.30
2018-07-28T01:13:57.336Z,47.40
2018-07-28T01:16:25.608Z,47.40
2018-07-28T01:18:53.672Z,47.50
2018-07-28T01:21:21.776Z,47.40
2018-07-28T01:23:49.857Z,47.50
2018-07-28T01:26:17.920Z,47.50
2018-07-28T01:28:50.245Z,47.50
2018-07-28T01:31:18.345Z,47.50
2018-07-28T01:33:46.468Z,47.60
2018-07-28T01:36:14.610Z,47.60
2018-07-28T01:38:42.676Z,47.60
2018-07-28T01:41:10.853Z,47.60
2018-07-28T01:43:38.928Z,47.60
2018-07-28T01:46:07.086Z,47.60
2018-07-28T01:48:35.275Z,47.60
2018-07-28T01:51:03.429Z,47.70
2018-07-28T01:55:59.447Z,47.70
2018-07-28T01:58:27.509Z,47.70
2018-07-28T02:00:55.640Z,47.70
2018-07-28T02:03:23.705Z,47.80
2018-07-28T02:05:51.832Z,47.80
2018-07-28T02:08:19.902Z,47.80
2018-07-28T02:10:47.991Z,47.80
2018-07-28T02:13:16.060Z,47.80
2018-07-28T02:15:44.336Z,48.30
2018-07-28T02:18:12.421Z,47.90
2018-07-28T02:20:40.666Z,47.90
2018-07-28T02:23:09.056Z,47.90
2018-07-28T02:25:37.162Z,47.90
2018-07-28T02:28:05.301Z,48.00
2018-07-28T02:30:33.491Z,48.00
2018-07-28T02:33:01.705Z,48.00
2018-07-28T02:35:30.105Z,48.70
2018-07-28T02:37:58.212Z,48.00
2018-07-28T02:40:26.297Z,48.10
2018-07-28T02:42:54.392Z,48.60
2018-07-28T02:45:22.769Z,48.00
2018-07-28T02:47:50.926Z,48.00
2018-07-28T02:50:19.032Z,48.00
2018-07-28T02:52:47.124Z,48.10
2018-07-28T02:55:15.204Z,48.10
2018-07-28T02:57:43.299Z,48.10
2018-07-28T03:00:11.387Z,48.00
2018-07-28T03:02:39.504Z,48.00
2018-07-28T03:05:08.193Z,48.10
2018-07-28T03:07:36.320Z,48.10
2018-07-28T03:10:04.644Z,48.10
2018-07-28T03:12:32.772Z,48.10
2018-07-28T03:15:01.542Z,48.10
2018-07-28T03:17:29.613Z,48.10
2018-07-28T03:19:57.697Z,48.10
2018-07-28T03:22:25.791Z,48.10
2018-07-28T03:24:53.929Z,48.10
2018-07-28T03:27:22.012Z,48.10
2018-07-28T03:29:50.088Z,48.10
2018-07-28T03:32:18.209Z,48.10
2018-07-28T03:34:46.319Z,48.10
2018-07-28T03:37:14.454Z,48.10
2018-07-28T03:39:42.565Z,48.10
2018-07-28T03:42:10.728Z,48.10
2018-07-28T03:47:07.068Z,48.10
2018-07-28T03:49:35.240Z,48.20
2018-07-28T03:52:03.408Z,48.20
2018-07-28T03:54:31.576Z,48.20
2018-07-28T03:56:59.679Z,48.20
2018-07-28T03:59:27.775Z,48.20
2018-07-28T04:01:55.855Z,48.30
2018-07-28T04:04:23.940Z,48.20
2018-07-28T04:06:52.040Z,48.20
2018-07-28T04:09:20.167Z,48.30
2018-07-28T04:11:48.256Z,48.30
2018-07-28T04:14:16.396Z,48.30
2018-07-28T04:16:44.440Z,48.30
2018-07-28T04:19:12.544Z,48.30
2018-07-28T04:21:40.640Z,48.30
2018-07-28T04:24:08.779Z,48.30
2018-07-28T04:26:36.912Z,48.30
2018-07-28T04:29:05.022Z,48.30
2018-07-28T04:31:33.168Z,48.30
2018-07-28T04:34:01.317Z,48.30
2018-07-28T04:36:29.404Z,48.30
2018-07-28T04:38:57.448Z,48.30
2018-07-28T04:41:25.558Z,48.30
2018-07-28T04:43:53.643Z,48.30
2018-07-28T04:46:21.748Z,48.40
2018-07-28T04:48:49.833Z,48.40
2018-07-28T04:51:17.906Z,48.40
2018-07-28T04:53:46.013Z,48.30
2018-07-28T04:56:14.092Z,48.40
2018-07-28T04:58:42.167Z,48.40
2018-07-28T05:01:10.354Z,48.40
2018-07-28T05:03:38.471Z,48.40
2018-07-28T05:06:06.872Z,48.40
2018-07-28T05:08:35.148Z,48.40
2018-07-28T05:11:03.439Z,48.40
2018-07-28T05:13:31.846Z,48.40
2018-07-28T05:15:59.981Z,48.40
2018-07-28T05:20:56.156Z,47.90
2018-07-28T05:23:24.286Z,48.50
2018-07-28T05:25:52.551Z,48.50
2018-07-28T05:28:20.693Z,48.50
2018-07-28T05:30:48.946Z,48.50
2018-07-28T05:33:17.063Z,48.50
2018-07-28T05:35:45.132Z,48.50
2018-07-28T05:38:13.409Z,48.50
2018-07-28T05:40:41.596Z,48.50
2018-07-28T05:43:09.833Z,48.60
2018-07-28T05:45:38.085Z,49.20
2018-07-28T05:48:06.260Z,48.60
2018-07-28T05:50:35.056Z,48.60
2018-07-28T05:53:03.425Z,48.70
2018-07-28T05:55:31.531Z,48.70
2018-07-28T05:57:59.626Z,48.70
2018-07-28T06:00:27.860Z,48.70
2018-07-28T06:02:55.944Z,48.70
2018-07-28T06:05:24.081Z,48.70
2018-07-28T06:07:52.264Z,48.70
2018-07-28T06:10:20.453Z,48.70
2018-07-28T06:12:48.549Z,48.70
2018-07-28T06:15:16.696Z,48.70
2018-07-28T06:17:44.777Z,48.70
2018-07-28T06:20:12.925Z,48.70
2018-07-28T06:25:08.972Z,48.80
2018-07-28T06:27:37.101Z,48.70
2018-07-28T06:30:05.526Z,48.80
2018-07-28T06:32:33.674Z,48.80
2018-07-28T06:35:02.308Z,48.80
2018-07-28T06:37:30.563Z,48.80
2018-07-28T06:39:58.668Z,48.70
2018-07-28T06:42:26.828Z,48.80
2018-07-28T06:44:54.928Z,48.80
2018-07-28T06:47:23.068Z,48.80
2018-07-28T06:49:51.232Z,48.80
2018-07-28T06:52:19.348Z,48.80
2018-07-28T06:57:15.389Z,48.80
2018-07-28T06:59:43.500Z,48.80
2018-07-28T07:02:11.635Z,48.80
2018-07-28T07:04:39.800Z,48.80
2018-07-28T07:07:07.852Z,48.90
2018-07-28T07:09:35.992Z,48.80
2018-07-28T07:12:04.137Z,48.80
2018-07-28T07:17:00.296Z,48.80
2018-07-28T07:19:29.361Z,48.80
2018-07-28T07:21:57.431Z,48.90
2018-07-28T07:24:25.538Z,48.90
2018-07-28T07:26:53.623Z,48.80
2018-07-28T07:29:21.724Z,48.80
2018-07-28T07:31:49.800Z,48.80
2018-07-28T07:34:18.144Z,48.70
2018-07-28T07:36:46.226Z,48.70
2018-07-28T07:39:14.307Z,48.70
2018-07-28T07:41:42.453Z,48.70
2018-07-28T07:44:10.684Z,48.70
2018-07-28T07:46:38.862Z,48.70
2018-07-28T07:49:06.990Z,48.70
2018-07-28T07:51:35.165Z,48.60
2018-07-28T07:54:03.350Z,48.70
2018-07-28T07:56:31.487Z,48.60
2018-07-28T07:58:59.556Z,48.60
2018-07-28T08:01:27.649Z,48.60
2018-07-28T08:03:55.728Z,48.10
2018-07-28T08:06:23.821Z,48.50
2018-07-28T08:08:52.663Z,48.50
2018-07-28T08:11:21.908Z,48.50
2018-07-28T08:13:49.976Z,48.50
2018-07-28T08:16:18.193Z,48.50
2018-07-28T08:18:46.275Z,48.50
2018-07-28T08:21:14.382Z,48.50
2018-07-28T08:23:42.464Z,48.50
2018-07-28T08:26:10.776Z,48.50
2018-07-28T08:28:39.235Z,48.40
2018-07-28T08:31:07.505Z,48.40
2018-07-28T08:33:35.661Z,48.30
2018-07-28T08:38:32.277Z,48.30
2018-07-28T08:41:00.384Z,48.30
2018-07-28T08:43:28.610Z,48.20
2018-07-28T08:45:56.692Z,48.20
2018-07-28T08:48:25.364Z,48.20
2018-07-28T08:50:53.644Z,48.50
2018-07-28T08:53:21.799Z,48.40
2018-07-28T08:55:50.040Z,48.40
2018-07-28T08:58:18.200Z,48.50
2018-07-28T09:00:46.272Z,48.40
2018-07-28T09:03:14.345Z,48.50
2018-07-28T09:05:42.636Z,48.70
2018-07-28T09:08:10.743Z,48.60
2018-07-28T09:10:38.987Z,48.70
2018-07-28T09:13:08.287Z,49.00
2018-07-28T09:15:36.404Z,49.20
2018-07-28T09:18:04.664Z,49.20
2018-07-28T09:20:32.703Z,49.30
2018-07-28T09:23:00.881Z,49.50
2018-07-28T09:25:28.976Z,49.40
2018-07-28T09:27:57.103Z,49.80
2018-07-28T09:32:53.344Z,50.40
2018-07-28T09:35:21.527Z,50.20
2018-07-28T09:37:49.701Z,50.20
2018-07-28T09:40:17.672Z,50.30
2018-07-28T09:42:45.780Z,50.20
2018-07-28T09:45:13.935Z,50.40
2018-07-28T09:47:42.080Z,50.70
2018-07-28T09:50:10.184Z,50.80
2018-07-28T09:52:38.335Z,51.30
2018-07-28T09:55:06.490Z,50.60
2018-07-28T09:57:34.676Z,50.40
2018-07-28T10:00:02.785Z,50.40
2018-07-28T10:02:31.429Z,50.30
2018-07-28T10:04:59.525Z,50.40
2018-07-28T10:07:27.600Z,50.40
2018-07-28T10:09:55.906Z,50.20
2018-07-28T10:12:24.031Z,50.10
2018-07-28T10:14:53.681Z,50.20
2018-07-28T10:19:49.628Z,49.90
2018-07-28T10:22:17.686Z,49.90
2018-07-28T10:24:45.819Z,49.90
2018-07-28T10:27:13.865Z,49.80
2018-07-28T10:29:41.991Z,49.80
2018-07-28T10:32:10.296Z,50.00
2018-07-28T10:37:06.513Z,49.40
2018-07-28T10:39:34.767Z,49.40
2018-07-28T10:42:03.060Z,49.40
2018-07-28T10:44:31.220Z,49.60
2018-07-28T10:46:59.440Z,49.60
2018-07-28T10:49:27.681Z,50.00
2018-07-28T10:51:55.967Z,50.00
2018-07-28T10:54:24.081Z,50.40
2018-07-28T10:56:52.308Z,50.40
2018-07-28T10:59:20.481Z,50.50
2018-07-28T11:01:48.776Z,50.50
2018-07-28T11:04:16.857Z,50.70
2018-07-28T11:06:44.937Z,51.00
2018-07-28T11:09:13.099Z,49.40
2018-07-28T11:11:41.141Z,48.40
2018-07-28T11:14:09.220Z,48.40
2018-07-28T11:16:37.311Z,47.70
2018-07-28T11:19:05.516Z,47.20
2018-07-28T11:21:33.667Z,47.40
2018-07-28T11:24:02.569Z,46.80
2018-07-28T11:26:30.731Z,46.20
2018-07-28T11:28:58.857Z,46.60
2018-07-28T11:31:38.493Z,46.40
2018-07-28T11:34:18.006Z,46.70
2018-07-28T11:38:00.470Z,46.70
2018-07-28T11:40:43.251Z,47.00
2018-07-28T11:43:22.960Z,48.20
2018-07-28T11:45:51.101Z,47.80
2018-07-28T11:48:20.259Z,48.50
2018-07-28T11:50:48.350Z,47.80
2018-07-28T11:53:16.440Z,47.50
2018-07-28T11:55:44.580Z,48.30
2018-07-28T11:58:12.807Z,47.20
2018-07-28T12:00:41.001Z,47.40
2018-07-28T12:05:37.099Z,47.50
2018-07-28T12:08:05.289Z,45.70
2018-07-28T12:10:33.436Z,44.60
2018-07-28T12:13:01.539Z,45.30
2018-07-28T12:15:29.633Z,45.50
2018-07-28T12:17:57.733Z,44.90
2018-07-28T12:20:25.873Z,44.10
2018-07-28T12:22:53.964Z,44.00
2018-07-28T12:25:22.020Z,44.70
2018-07-28T12:27:50.144Z,44.00
2018-07-28T12:30:18.372Z,44.00
2018-07-28T12:32:46.460Z,43.00
2018-07-28T12:35:14.587Z,43.80
2018-07-28T12:37:42.748Z,43.40
2018-07-28T12:40:10.817Z,42.70
2018-07-28T12:42:38.959Z,42.50
2018-07-28T12:45:07.009Z,43.60
2018-07-28T12:47:35.102Z,43.60
2018-07-28T12:52:31.425Z,44.60
2018-07-28T12:55:00.893Z,44.90
2018-07-28T12:59:57.684Z,45.20
2018-07-28T13:02:25.869Z,45.60
2018-07-28T13:07:22.083Z,46.90
2018-07-28T13:09:50.491Z,46.00
2018-07-28T13:12:18.634Z,46.30
2018-07-28T13:14:46.920Z,46.50
2018-07-28T13:17:15.010Z,46.50
2018-07-28T13:19:43.196Z,46.60
2018-07-28T13:22:11.314Z,46.80
2018-07-28T13:24:39.524Z,47.00
2018-07-28T13:27:07.724Z,46.60
2018-07-28T13:29:36.164Z,46.70
2018-07-28T13:32:04.459Z,47.20
2018-07-28T13:34:32.767Z,47.10
2018-07-28T13:37:00.996Z,46.90
2018-07-28T13:39:29.146Z,45.00
2018-07-28T13:41:57.408Z,44.30
2018-07-28T13:44:25.569Z,42.70
2018-07-28T13:46:53.664Z,42.70
2018-07-28T13:49:21.792Z,43.00
2018-07-28T13:54:17.930Z,43.30
2018-07-28T13:56:46.049Z,43.60
2018-07-28T13:59:14.202Z,44.00
2018-07-28T14:01:42.321Z,44.40
2018-07-28T14:04:10.462Z,45.10
2018-07-28T14:06:38.705Z,46.00
2018-07-28T14:09:08.719Z,47.40
2018-07-28T14:11:36.953Z,47.60
2018-07-28T14:14:05.032Z,47.90
2018-07-28T14:16:33.175Z,48.90
2018-07-28T14:19:01.330Z,48.90
2018-07-28T14:21:29.390Z,48.50
2018-07-28T14:23:57.531Z,49.00
2018-07-28T14:26:25.647Z,48.90
2018-07-28T14:28:53.768Z,49.40
2018-07-28T14:31:21.976Z,49.40
2018-07-28T14:33:50.341Z,50.00
2018-07-28T14:36:18.437Z,50.30
2018-07-28T14:38:46.551Z,50.80
2018-07-28T14:41:14.714Z,50.80
2018-07-28T14:43:42.787Z,50.60
2018-07-28T14:48:38.954Z,51.00
2018-07-28T14:51:07.420Z,51.20
2018-07-28T14:53:35.815Z,51.30
2018-07-28T14:56:03.932Z,51.30
2018-07-28T15:01:00.382Z,51.50
2018-07-28T15:03:28.453Z,52.00
2018-07-28T15:05:57.509Z,52.10
2018-07-28T15:08:25.584Z,52.10
2018-07-28T15:10:53.789Z,51.90
2018-07-28T15:13:21.887Z,52.00
2018-07-28T15:15:50.004Z,52.30
2018-07-28T15:18:18.075Z,51.70
2018-07-28T15:20:46.141Z,51.70
2018-07-28T15:23:14.200Z,52.20
2018-07-28T15:25:42.344Z,52.70
2018-07-28T15:28:10.585Z,52.60
2018-07-28T15:30:38.650Z,52.60
2018-07-28T15:33:06.807Z,52.60
2018-07-28T15:35:34.912Z,52.60
2018-07-28T15:38:03.064Z,52.70
2018-07-28T15:40:31.229Z,52.70
2018-07-28T15:42:59.356Z,52.70
2018-07-28T15:45:27.411Z,52.80
2018-07-28T15:50:23.451Z,52.90
2018-07-28T15:52:51.503Z,52.70
2018-07-28T15:55:19.666Z,52.60
2018-07-28T15:57:47.742Z,52.70
2018-07-28T16:00:18.292Z,52.60
2018-07-28T16:02:46.940Z,52.60
2018-07-28T16:05:15.243Z,52.60
2018-07-28T16:07:43.320Z,52.70
2018-07-28T16:10:11.488Z,52.80
2018-07-28T16:12:39.668Z,52.40
2018-07-28T16:15:07.773Z,52.70
2018-07-28T16:17:36.297Z,52.80
2018-07-28T16:20:04.505Z,52.90
2018-07-28T16:22:32.789Z,53.00
2018-07-28T16:25:00.900Z,53.00
2018-07-28T16:27:28.928Z,53.00
2018-07-28T16:29:57.080Z,53.00
2018-07-28T16:32:25.165Z,52.90
2018-07-28T16:34:53.321Z,52.90
2018-07-28T16:37:21.496Z,52.80
2018-07-28T16:39:49.644Z,52.90
2018-07-28T16:42:17.788Z,53.40
2018-07-28T16:44:45.978Z,52.80
2018-07-28T16:47:14.053Z,52.90
2018-07-28T16:52:10.245Z,52.70
2018-07-28T16:54:38.295Z,52.60
2018-07-28T16:57:06.354Z,52.70
2018-07-28T16:59:34.536Z,52.50
2018-07-28T17:02:02.629Z,52.40
2018-07-28T17:04:30.725Z,52.40
2018-07-28T17:06:58.810Z,52.50
2018-07-28T17:09:26.861Z,52.50
2018-07-28T17:14:22.888Z,52.40
2018-07-28T17:16:50.939Z,52.30
2018-07-28T17:19:19.028Z,52.40
2018-07-28T17:21:47.223Z,52.30
2018-07-28T17:24:15.476Z,52.30
2018-07-28T17:26:43.525Z,52.30
2018-07-28T17:29:11.585Z,52.30
2018-07-28T17:31:39.644Z,52.30
2018-07-28T17:34:07.760Z,52.30
2018-07-28T17:36:35.895Z,52.40
2018-07-28T17:39:05.514Z,52.30
2018-07-28T17:41:33.703Z,52.40
2018-07-28T17:44:01.900Z,52.40
2018-07-28T17:46:29.953Z,52.40
2018-07-28T17:48:58.033Z,52.40
2018-07-28T17:51:26.192Z,52.60
2018-07-28T17:53:54.296Z,53.10
2018-07-28T17:56:22.344Z,52.60
2018-07-28T17:58:50.828Z,52.60
2018-07-28T18:01:18.928Z,52.60
2018-07-28T18:03:46.975Z,52.60
2018-07-28T18:06:15.129Z,52.50
2018-07-28T18:08:43.241Z,52.60
2018-07-28T18:11:11.299Z,52.60
2018-07-28T18:16:07.402Z,53.10
2018-07-28T18:18:35.528Z,52.60
2018-07-28T18:21:03.652Z,52.60
2018-07-28T18:23:31.751Z,52.60
2018-07-28T18:25:59.916Z,52.60
2018-07-28T18:28:27.999Z,52.50
2018-07-28T18:33:24.049Z,52.60
2018-07-28T18:35:52.380Z,52.70
2018-07-28T18:38:20.489Z,52.70
2018-07-28T18:40:48.604Z,52.70
2018-07-28T18:43:16.675Z,52.60
2018-07-28T18:45:44.840Z,52.60
2018-07-28T18:48:13.934Z,52.60
2018-07-28T18:50:42.292Z,52.60
2018-07-28T18:53:10.439Z,52.50
2018-07-28T18:55:38.636Z,52.50
2018-07-28T18:58:08.170Z,52.70
2018-07-28T19:00:36.271Z,52.60
2018-07-28T19:03:04.348Z,52.60
2018-07-28T19:05:32.504Z,52.60
2018-07-28T19:08:00.596Z,53.20
2018-07-28T19:10:28.788Z,53.20
2018-07-28T19:13:02.431Z,52.60
2018-07-28T19:15:30.624Z,52.60
2018-07-28T19:19:06.983Z,52.60
2018-07-28T19:21:35.078Z,52.80
2018-07-28T19:24:04.236Z,53.00
2018-07-28T19:26:32.775Z,53.10
2018-07-28T19:29:06.408Z,53.10
2018-07-28T19:31:34.580Z,53.00
2018-07-28T19:34:02.821Z,52.90
2018-07-28T19:36:36.300Z,52.90
2018-07-28T19:39:06.949Z,52.90
2018-07-28T19:41:40.653Z,53.00
2018-07-28T19:44:08.972Z,53.10
2018-07-28T19:46:37.068Z,53.00
2018-07-28T19:49:05.302Z,53.00
2018-07-28T19:51:33.714Z,53.10
2018-07-28T19:54:01.815Z,53.20
2018-07-28T19:56:29.940Z,53.20
2018-07-28T19:58:58.039Z,53.40
2018-07-28T20:01:26.124Z,53.30
2018-07-28T20:03:54.195Z,53.40
2018-07-28T20:06:22.240Z,53.30
2018-07-28T20:08:50.382Z,53.30
2018-07-28T20:11:18.530Z,53.20
2018-07-28T20:13:46.612Z,53.10
2018-07-28T20:18:42.596Z,53.10
2018-07-28T20:21:10.701Z,53.00
2018-07-28T20:23:38.789Z,52.80
2018-07-28T20:26:06.996Z,52.70
2018-07-28T20:31:03.027Z,52.50
2018-07-28T20:33:31.139Z,52.20
2018-07-28T20:35:59.196Z,51.80
2018-07-28T20:38:27.379Z,51.90
2018-07-28T20:40:55.452Z,51.50
2018-07-28T20:43:23.570Z,51.40
2018-07-28T20:45:51.819Z,51.20
2018-07-28T20:48:19.939Z,50.90
2018-07-28T20:50:47.964Z,50.70
2018-07-28T20:53:16.113Z,50.60
2018-07-28T20:55:44.212Z,50.60
2018-07-28T20:58:12.667Z,50.30
2018-07-28T21:00:40.856Z,50.40
2018-07-28T21:03:09.144Z,50.30
2018-07-28T21:05:37.532Z,50.20
2018-07-28T21:08:05.749Z,50.10
2018-07-28T21:10:33.891Z,50.00
2018-07-28T21:13:02.129Z,50.00
2018-07-28T21:17:58.121Z,50.00
2018-07-28T21:20:26.313Z,49.90
2018-07-28T21:22:54.408Z,49.80
2018-07-28T21:25:22.456Z,49.80
2018-07-28T21:27:50.651Z,49.80
2018-07-28T21:30:18.752Z,49.80
2018-07-28T21:32:46.859Z,49.80
2018-07-28T21:35:14.993Z,49.70
2018-07-28T21:37:43.100Z,49.70
2018-07-28T21:40:11.225Z,49.80
2018-07-28T21:42:39.345Z,49.80
2018-07-28T21:47:35.376Z,50.50
2018-07-28T21:50:03.482Z,49.90
2018-07-28T21:52:31.657Z,49.90
2018-07-28T21:54:59.764Z,50.00
2018-07-28T21:57:27.844Z,50.00
2018-07-28T21:59:55.921Z,49.90
2018-07-28T22:02:23.992Z,49.90
2018-07-28T22:04:52.136Z,49.90
2018-07-28T22:07:20.198Z,49.90
2018-07-28T22:09:48.270Z,50.00
2018-07-28T22:12:16.333Z,50.00
2018-07-28T22:14:44.420Z,49.90
2018-07-28T22:17:12.482Z,49.90
2018-07-28T22:19:40.596Z,49.90
2018-07-28T22:22:08.820Z,50.00
2018-07-28T22:24:36.928Z,50.10
2018-07-28T22:27:05.248Z,50.00
2018-07-28T22:29:33.389Z,50.10
2018-07-28T22:32:01.465Z,50.00
2018-07-28T22:34:29.560Z,50.10
2018-07-28T22:36:57.745Z,50.00
2018-07-28T22:39:25.809Z,50.10
2018-07-28T22:41:53.897Z,50.10
2018-07-28T22:44:22.000Z,50.00
2018-07-28T22:46:50.101Z,50.10
2018-07-28T22:49:18.419Z,50.10
2018-07-28T22:51:46.585Z,50.00
2018-07-28T22:54:14.796Z,50.10
2018-07-28T22:56:42.869Z,50.10
2018-07-28T22:59:11.106Z,50.10
2018-07-28T23:01:39.338Z,50.00
2018-07-28T23:04:07.518Z,50.00
2018-07-28T23:06:35.612Z,50.10
2018-07-28T23:09:05.252Z,50.10
2018-07-28T23:11:33.373Z,50.10
2018-07-28T23:14:01.529Z,50.10
2018-07-28T23:16:29.612Z,50.10
2018-07-28T23:18:57.700Z,50.20
2018-07-28T23:21:25.792Z,50.20
2018-07-28T23:23:53.895Z,50.20
2018-07-28T23:26:21.972Z,50.80
2018-07-28T23:28:50.080Z,50.20
2018-07-28T23:31:18.148Z,50.20
2018-07-28T23:33:46.256Z,50.10
2018-07-28T23:36:14.333Z,50.20
2018-07-28T23:38:42.600Z,50.10
2018-07-28T23:41:11.008Z,50.10
2018-07-28T23:43:39.200Z,50.10
2018-07-28T23:48:35.227Z,50.10
2018-07-28T23:51:03.312Z,50.10
2018-07-28T23:53:31.423Z,50.10
2018-07-28T23:55:59.538Z,50.10
2018-07-28T23:58:27.623Z,50.00
